Flight Track Log - Related Links

Times and Time Zones

All times are in EST time to prevent confusion due to time zone crossing. See the SWA234 flight status page for this flight to view local times or setup timezone preferences in your user account.

Time Position Orientation Groundspeed Altitude Reporting Facility
EST Latitude Longitude Course Direction KTS MPH feet Rate Location/Type
Sun 12:46:38 PM 34.0572 -117.6986 301° West 207 238 3,900  Level Los Angeles Center
Sun 12:48:41 PM 34.1114 -117.8342 270° West 242 278 8,600 2,648 Climbing Los Angeles Center
Sun 12:50:45 PM 34.2214 -117.9964 309° West 303 349 14,800 2,585 Climbing Los Angeles Center
Sun 12:53:01 PM 34.3503 -118.1864 301° West 342 394 19,800 2,111 Climbing Los Angeles Center
Sun 12:54:04 PM 34.4111 -118.2761 309° West 347 399 21,800 1,824 Climbing Los Angeles Center
Sun 12:55:06 PM 34.4758 -118.3717 309° West 366 421 23,600 2,129 Climbing Los Angeles Center
Sun 12:56:08 PM 34.5594 -118.4808 313° West 372 428 26,200 2,032 Climbing Los Angeles Center
Sun 12:57:10 PM 34.6572 -118.5414 333° Northwest 392 451 27,800 1,645 Climbing Los Angeles Center
Sun 12:58:12 PM 34.7369 -118.5844 336° Northwest 393 452 29,600 1,839 Climbing Los Angeles Center
Sun 12:59:14 PM 34.8533 -118.6503 335° Northwest 385 443 31,600 1,710 Climbing Los Angeles Center
Sun 01:01:18 PM 35.0639 -118.7689 335° Northwest 382 440 34,900 1,412 Climbing Los Angeles Center
Sun 01:02:21 PM 35.1600 -118.8222 336° Northwest 380 437 36,000 528 Climbing Los Angeles Center
Sun 01:03:23 PM 35.2569 -118.8742 336° Northwest 383 441 36,000  Level Los Angeles Center
Sun 01:05:27 PM 35.4422 -118.9794 335° Northwest 368 423 36,000  Level Los Angeles Center
Sun 01:06:29 PM 35.5533 -119.0431 335° Northwest 369 425 36,000  Level Los Angeles Center
Sun 01:07:31 PM 35.6467 -119.0964 335° Northwest 370 426 36,000  Level Los Angeles Center
Sun 01:09:47 PM 35.8519 -119.2153 335° Northwest 371 427 36,000  Level Oakland Center
Sun 01:10:48 PM 35.9439 -119.2681 335° Northwest 368 423 36,000  Level Oakland Center
Sun 01:11:49 PM 36.0344 -119.3192 335° Northwest 363 418 36,000  Level Oakland Center
Sun 01:12:50 PM 36.1442 -119.3822 335° Northwest 364 419 36,000  Level Oakland Center
Sun 01:13:51 PM 36.2303 -119.4458 329° Northwest 361 415 36,000  Level Oakland Center
Sun 01:14:52 PM 36.3153 -119.5092 329° Northwest 359 413 36,000  Level Oakland Center
Sun 01:15:53 PM 36.4022 -119.5733 329° Northwest 363 418 36,000  Level Oakland Center
Sun 01:16:54 PM 36.4883 -119.6383 329° Northwest 364 419 36,000  Level Oakland Center
Sun 01:17:55 PM 36.5744 -119.7033 329° Northwest 363 418 36,000  Level Oakland Center
Sun 01:18:56 PM 36.6597 -119.7678 329° Northwest 361 415 36,000  Level Oakland Center
Sun 01:19:57 PM 36.7447 -119.8322 329° Northwest 359 413 36,000  Level Oakland Center
Sun 01:20:58 PM 36.8294 -119.8975 328° Northwest 359 413 36,000  Level Oakland Center
Sun 01:21:59 PM 36.9136 -119.9619 329° Northwest 356 410 36,000 -852 Level Oakland Center
Sun 01:23:00 PM 36.9935 -120.0255 329° Northwest  Level FlightAware Approximate
Sun 01:24:01 PM 37.0889 -120.0947 329° Northwest 354 407 33,400  Level Oakland Center
Sun 01:26:03 PM 37.2564 -120.2214 329° Northwest 346 398 28,600 -2,262 Descending Oakland Center
Sun 01:27:04 PM 37.3339 -120.2822 328° Northwest 332 382 26,500 -2,213 Descending Oakland Center
Sun 01:28:05 PM 37.4169 -120.3486 328° Northwest 351 404 24,100 -1,721 Descending Oakland Center
Sun 01:29:06 PM 37.5036 -120.4292 324° Northwest 320 368 23,000 -1,033 Descending Oakland Center
Sun 01:30:07 PM 37.5728 -120.5006 321° Northwest 319 367 22,000 -984 Descending Oakland Center
Sun 01:31:08 PM 37.6422 -120.5686 322° Northwest 317 365 21,000 -984 Descending Oakland Center
Sun 01:33:10 PM 37.7783 -120.7044 322° Northwest 312 359 19,000 -984 Descending Oakland Center
Sun 01:34:11 PM 37.8464 -120.7739 321° Northwest 313 360 18,000 -880 Descending Oakland Center
Sun 01:36:14 PM 37.9847 -120.9128 322° Northwest 316 364 16,300 -906 Descending Oakland Center
Sun 01:38:16 PM 38.1108 -121.0572 318° Northwest 301 346 14,300 -1,039 Descending Oakland Center
Sun 01:39:13 PM 38.1667 -121.1333 313° West 298 343 13,200 -1,051 Descending Northern Cal TRACON
Sun 01:41:13 PM 38.2667 -121.3000 307° West 293 337 11,200 -1,033 Descending Northern Cal TRACON
Sun 01:42:13 PM 38.3333 -121.3667 322° Northwest 278 320 10,100 -1,400 Descending Northern Cal TRACON
Sun 01:43:13 PM 38.3667 -121.4500 297° West 267 307 8,400 -1,665 Descending Northern Cal TRACON
Sun 01:45:06 PM 38.4667 -121.5667 318° Northwest 267 307 5,300 -1,517 Descending Northern Cal TRACON
Sun 01:46:07 PM 38.5333 -121.6167 330° Northwest 264 304 4,000 -561 Descending Northern Cal TRACON
Sun 01:47:25 PM 38.6144 -121.6825 328° Northwest 261 300 4,000  Level Oakland Center
Sun 01:48:26 PM 38.6878 -121.6933 353° North 271 312 4,000 -295 Level Oakland Center
Sun 01:49:27 PM 38.7561 -121.6953 359° North 257 296 3,400 -738 Descending Oakland Center
Sun 01:50:28 PM 38.8192 -121.6942 North 241 277 2,500 -689 Descending Oakland Center
Sun 01:51:29 PM 38.8839 -121.6897 North 234 269 2,000 -244 Descending Oakland Center
Sun 01:52:31 PM 38.8958 -121.6236 77° East 206 237 2,000  Level Oakland Center
Sun 01:53:01 PM 38.8667 -121.6000 148° Southeast 179 206 2,000  Level Northern Cal TRACON
Sun 01:53:55 PM 38.8333 -121.6000 180° South 162 186 2,000 -105 Level Northern Cal TRACON
Sun 01:54:55 PM 38.8000 -121.6000 180° South 129 148 1,800 -450 Descending Northern Cal TRACON
Sun 01:55:55 PM 38.7667 -121.6000 180° South 121 139 1,100 -684 Descending Northern Cal TRACON
Sun 01:56:49 PM 38.7333 -121.6000 180° South 121 139 500 -667 Descending Northern Cal TRACON

Login

Don't have an account? Register now (free) for customized features, flight alerts, and more!